Hanjin Chongqing — 3EPJ2 — position and weather

sailwx.info

Track history (hours):
 
Tides and Currents Weather Stations Pressure Air Temp Water Temp Dewpoint Dewpoint Depression Visibility Wind Speed Wind Dir Waves Ship Positions

Hanjin Chongqing

Last reported at 2016-Aug-29 21:33 UTC. Time now 2016-Oct-01 08:46 UTC.
Position N 30°37' E 122°46'.
Warning: this ship's position is 32 days out of date.

Length 304 m; draft 12 m.

Type: Cargo ship. MMSI: 353957976.

Date/timePositionNaut miles runAvg speedWind from/ knotsBaromVisibWave heightAir tempDewpointWater temp
2016-Aug-29 21:33N 30°37' E 122°46'11 0.5
2016-Aug-28 22:31N 30°29' E 122°38'1514.9
2016-Aug-28 21:29N 30°17' E 122°49'2518.0
2016-Aug-28 20:05N 29°52' E 122°43'1217.6
2016-Aug-28 19:25N 29°42' E 122°36'1517.1
2016-Aug-28 18:33N 29°44' E 122°19'1010.4
2016-Aug-28 17:33N 29°50' E 122°09'8 8.1
2016-Aug-28 16:33N 29°46' E 122°00'0 0.0
2016-Aug-28 06:19N 29°46' E 122°00'0 0.0
2016-Aug-28 01:04N 29°46' E 122°00'0 0.0
2016-Aug-27 19:22N 29°46' E 122°00'3 3.2
2016-Aug-27 18:33N 29°47' E 122°03'7 6.7
2016-Aug-27 17:33N 29°50' E 122°10'10 9.8
2016-Aug-27 16:33N 29°45' E 122°20'7 7.3
2016-Aug-27 15:33N 29°43' E 122°28'3 2.9
2016-Aug-27 14:25N 29°40' E 122°29'5 5.4
2016-Aug-27 13:33N 29°41' E 122°24'5 5.3
2016-Aug-27 12:33N 29°42' E 122°30'1212.1
2016-Aug-27 11:33N 29°40' E 122°44'4 2.0
2016-Aug-27 09:33N 29°41' E 122°48'9 2.8
2016-Aug-27 06:12N 29°49' E 122°54'  
Track history (hours):
 
Tides and Currents Weather Stations Pressure Air Temp Water Temp Dewpoint Dewpoint Depression Visibility Wind Speed Wind Dir Waves Ship Positions

Hanjin Chongqing

Last reported at 2016-Aug-29 21:33 UTC. Time now 2016-Oct-01 08:46 UTC.
Position N 30°37' E 122°46'.
Warning: this ship's position is 32 days out of date.

Length 304 m; draft 12 m.

Type: Cargo ship. MMSI: 353957976.

Date/timePositionNaut miles runAvg speedWind from/ knotsBaromVisibWave heightAir tempDewpointWater temp
2016-Aug-29 21:33N 30°37' E 122°46'11 0.5
2016-Aug-28 22:31N 30°29' E 122°38'1514.9
2016-Aug-28 21:29N 30°17' E 122°49'2518.0
2016-Aug-28 20:05N 29°52' E 122°43'1217.6
2016-Aug-28 19:25N 29°42' E 122°36'1517.1
2016-Aug-28 18:33N 29°44' E 122°19'1010.4
2016-Aug-28 17:33N 29°50' E 122°09'8 8.1
2016-Aug-28 16:33N 29°46' E 122°00'0 0.0
2016-Aug-28 06:19N 29°46' E 122°00'0 0.0
2016-Aug-28 01:04N 29°46' E 122°00'0 0.0
2016-Aug-27 19:22N 29°46' E 122°00'3 3.2
2016-Aug-27 18:33N 29°47' E 122°03'7 6.7
2016-Aug-27 17:33N 29°50' E 122°10'10 9.8
2016-Aug-27 16:33N 29°45' E 122°20'7 7.3
2016-Aug-27 15:33N 29°43' E 122°28'3 2.9
2016-Aug-27 14:25N 29°40' E 122°29'5 5.4
2016-Aug-27 13:33N 29°41' E 122°24'5 5.3
2016-Aug-27 12:33N 29°42' E 122°30'1212.1
2016-Aug-27 11:33N 29°40' E 122°44'4 2.0
2016-Aug-27 09:33N 29°41' E 122°48'9 2.8
2016-Aug-27 06:12N 29°49' E 122°54'  

Dump ship's entire track history